ADDS METAR Data INFO
IDs: Format: Raw Decoded Include TAF

Data at: 0713 UTC 24 Jun 2018

KSBS 240655Z AUTO 28004KT 10SM SCT100 SCT120 12/05 A3008 RMK AO1 T01190050
KSBS 240635Z AUTO 32003KT 10SM CLR 12/05 A3007 RMK AO1 T01230047
KSBS 240615Z AUTO 00000KT 10SM SCT110 13/05 A3005 RMK AO1 T01300049
KSBS 240555Z AUTO 35009G15KT 10SM SCT100 SCT120 14/05 A3005 RMK AO1 T01400049
KSBS 240535Z AUTO 01010G14KT 10SM SCT050 SCT070 SCT080 14/05 A3007 RMK AO1 T01400053
KSBS 240515Z AUTO 03015G23KT 10SM BKN060 BKN070 OVC075 15/05 A3008 RMK AO1 T01500049
KSBS 240455Z AUTO 36011KT 10SM SCT060 OVC070 16/04 A3009 RMK AO1 T01590043
KSBS 240435Z AUTO 34009G15KT 10SM SCT070 BKN080 OVC090 16/05 A3006 RMK AO1 T01640049
KSBS 240415Z AUTO 04009G14KT 10SM OVC090 18/03 A3004 RMK AO1 T01760032
KSBS 240355Z AUTO 03007KT 10SM BKN090 OVC110 18/03 A3001 RMK AO1 T01790031
KSBS 240335Z AUTO 35013G18KT 10SM SCT070 BKN090 BKN120 19/03 A2999 RMK AO1 T01870033
KSBS 240315Z AUTO 33012G24KT 10SM BKN100 OVC110 19/03 A2997 RMK AO1 T01900027
KSBS 240255Z AUTO 13004KT 10SM SCT095 OVC120 19/03 A2994 RMK AO1 T01900029
KSBS 240235Z AUTO 00000KT 10SM SCT070 SCT085 OVC120 20/02 A2994 RMK AO1 T01960019
KSBS 240215Z AUTO 31012G27KT 10SM SCT060 SCT085 OVC120 21/00 A2994 RMK AO1 T02121002
KSBS 240155Z AUTO 30006KT 10SM SCT080 BKN110 22/M01 A2992 RMK AO1 T02161009
KSBS 240135Z AUTO 22012G22KT 10SM BKN120 22/M01 A2995 RMK AO1 T02191007
KSBS 240115Z AUTO 00000KT 10SM SCT100 OVC120 22/00 A2994 RMK AO1 T02170000
KSBS 240055Z AUTO 21009G14KT 10SM BKN120 22/00 A2994 RMK AO1 T02201004
KSBS 240035Z AUTO 22011G16KT 10SM SCT060 SCT085 BKN120 22/00 A2994 RMK AO1 T02210001
KSBS 240015Z AUTO 21010G23KT 10SM SCT060 SCT085 OVC120 23/M01 A2994 RMK AO1 T02271006
KSBS 232355Z AUTO 26007G15KT 10SM BKN120 24/M02 A2992 RMK AO1 T02381019
KSBS 232335Z AUTO 28009KT 10SM SCT120 25/M03 A2993 RMK AO1 T02511029
KSBS 232315Z AUTO 27014G21KT 10SM CLR 26/M03 A2993 RMK AO1 T02641028
KSBS 232255Z AUTO 28013G19KT 10SM CLR 26/M03 A2994 RMK AO1 T02641030
KSBS 232235Z AUTO 25010G16KT 10SM SCT120 25/M01 A2996 RMK AO1 T02541011
KSBS 232215Z AUTO 21005KT 10SM SCT120 25/M01 A2996 RMK AO1 T02491006
KSBS 232155Z AUTO 19006KT 10SM CLR 25/M01 A2997 RMK AO1 T02501011
KSBS 232135Z AUTO 27009G15KT 10SM CLR 24/M01 A2998 RMK AO1 T02431011
KSBS 232115Z AUTO 26006KT 10SM SCT110 24/M01 A2999 RMK AO1 T02441006
KSBS 232055Z AUTO 23008KT 150V260 10SM SCT110 24/M01 A3000 RMK AO1 T02401011
KSBS 232035Z AUTO 27004KT 10SM CLR 24/M01 A3001 RMK AO1 T02361013
KSBS 232015Z AUTO 05003KT 10SM CLR 24/M01 A3002 RMK AO1 T02361014
KSBS 231955Z AUTO 25006KT 10SM SCT110 24/M02 A3003 RMK AO1 T02371019
KSBS 231935Z AUTO 25008G18KT 10SM SCT110 24/M02 A3004 RMK AO1 T02351019
KSBS 231915Z AUTO 17009G15KT 10SM SCT095 23/M01 A3004 RMK AO1 T02311009
KSBS 231855Z AUTO 25007G16KT 10SM SCT095 22/M01 A3005 RMK AO1 T02241009
KSBS 231835Z AUTO 26008KT 10SM CLR 22/00 A3006 RMK AO1 T02180000
KSBS 231815Z AUTO 24007KT 10SM CLR 22/01 A3008 RMK AO1 T02170006
KSBS 231755Z AUTO 26004KT 10SM CLR 21/01 A3009 RMK AO1 T02100005
KSBS 231735Z AUTO 25006KT 10SM CLR 20/01 A3009 RMK AO1 T02040012
KSBS 231715Z AUTO 00000KT 10SM CLR 20/02 A3010 RMK AO1 T01980015
KSBS 231655Z AUTO 00000KT 10SM CLR 19/02 A3010 RMK AO1 T01920023
KSBS 231635Z AUTO 00000KT 10SM CLR 18/04 A3010 RMK AO1 T01840038
KSBS 231615Z AUTO 00000KT 10SM CLR 17/04 A3010 RMK AO1 T01680038
KSBS 231555Z AUTO 00000KT 10SM CLR 15/03 A3010 RMK AO1 T01530033
KSBS 231535Z AUTO 00000KT 10SM CLR 14/03 A3011 RMK AO1 T01420030
KSBS 231515Z AUTO 00000KT 10SM CLR 13/02 A3011 RMK AO1 T01330023
KSBS 231455Z AUTO 00000KT 10SM CLR 12/02 A3012 RMK AO1 T01230020
KSBS 231435Z AUTO 00000KT 10SM CLR 11/02 A3012 RMK AO1 T01110023
KSBS 231415Z AUTO 00000KT 10SM CLR 10/02 A3012 RMK AO1 T00950020
KSBS 231355Z AUTO 00000KT 10SM CLR 08/02 A3012 RMK AO1 T00810017
KSBS 231335Z AUTO 00000KT 10SM CLR 07/01 A3012 RMK AO1 T00710013
KSBS 231315Z AUTO 00000KT 10SM CLR 06/01 A3012 RMK AO1 T00570013
KSBS 231255Z AUTO 00000KT 10SM CLR 05/01 A3012 RMK AO1 T00520010
KSBS 231235Z AUTO 00000KT 10SM CLR 05/01 A3012 RMK AO1 T00480010
KSBS 231215Z AUTO 00000KT 10SM CLR 05/01 A3012 RMK AO1 T00450012
KSBS 231155Z AUTO 00000KT 10SM CLR 05/01 A3012 RMK AO1 T00460013
KSBS 231135Z AUTO 00000KT 10SM CLR 05/02 A3012 RMK AO1 T00470016
KSBS 231115Z AUTO 00000KT 10SM CLR 05/01 A3011 RMK AO1 T00460013
KSBS 231055Z AUTO 00000KT 10SM CLR 04/01 A3011 RMK AO1 T00440014
KSBS 231035Z AUTO 00000KT 10SM CLR 04/01 A3011 RMK AO1 T00390014
KSBS 231015Z AUTO 00000KT 10SM CLR 05/01 A3011 RMK AO1 T00540012
KSBS 230955Z AUTO 00000KT 10SM CLR 07/02 A3010 RMK AO1 T00650015
KSBS 230935Z AUTO 00000KT 10SM CLR 07/02 A3011 RMK AO1 T00660019
KSBS 230915Z AUTO 00000KT 10SM CLR 07/02 A3012 RMK AO1 T00670019
KSBS 230855Z AUTO 00000KT 10SM CLR 07/02 A3013 RMK AO1 T00710020
KSBS 230835Z AUTO 00000KT 10SM CLR 08/02 A3013 RMK AO1 T00750017
KSBS 230815Z AUTO 00000KT 10SM CLR 08/02 A3013 RMK AO1 T00760023
KSBS 230755Z AUTO 00000KT 10SM CLR 08/02 A3013 RMK AO1 T00800018
KSBS 230735Z AUTO 00000KT 10SM CLR 09/02 A3013 RMK AO1 T00880017
KSBS 230715Z AUTO 00000KT 10SM CLR 09/02 A3013 RMK AO1 T00920019
KSBS 230655Z AUTO 00000KT 10SM CLR 10/02 A3013 RMK AO1 T00970018
KSBS 230635Z AUTO 00000KT 10SM CLR 10/02 A3013 RMK AO1 T00980015
KSBS 230615Z AUTO 00000KT 10SM CLR 11/01 A3013 RMK AO1 T01060013
KSBS 230555Z AUTO 10003KT 10SM CLR 11/01 A3013 RMK AO1 T01140011
KSBS 230535Z AUTO 11003KT 10SM CLR 12/01 A3013 RMK AO1 T01180011
KSBS 230515Z AUTO 09003KT 10SM CLR 12/01 A3012 RMK AO1 T01230012
KSBS 230455Z AUTO 00000KT 10SM CLR 13/01 A3013 RMK AO1 T01300010
KSBS 230435Z AUTO 00000KT 10SM CLR 14/01 A3012 RMK AO1 T01390008
KSBS 230415Z AUTO 00000KT 10SM CLR 15/01 A3012 RMK AO1 T01480008
KSBS 230355Z AUTO 00000KT 10SM CLR 15/01 A3011 RMK AO1 T01540005
KSBS 230335Z AUTO 00000KT 10SM CLR 16/01 A3010 RMK AO1 T01610005
KSBS 230315Z AUTO 34004KT 10SM CLR 17/01 A3009 RMK AO1 T01660006
KSBS 230255Z AUTO 31006KT 10SM CLR 18/00 A3009 RMK AO1 T01780003
KSBS 230235Z AUTO 30007KT 10SM CLR 19/00 A3008 RMK AO1 T01900001
KSBS 230215Z AUTO 30008G16KT 10SM CLR 21/00 A3008 RMK AO1 T02050000
KSBS 230155Z AUTO 29012KT 10SM CLR 21/00 A3007 RMK AO1 T02141005
KSBS 230135Z AUTO 29015G23KT 10SM CLR 22/00 A3007 RMK AO1 T02191003
KSBS 230115Z AUTO 28016G23KT 10SM CLR 22/M01 A3007 RMK AO1 T02231009
KSBS 230055Z AUTO 29017G25KT 10SM CLR 23/M01 A3006 RMK AO1 T02261008
KSBS 230035Z AUTO 29014G21KT 10SM CLR 23/M01 A3006 RMK AO1 T02281007
KSBS 230015Z AUTO 30016G26KT 10SM CLR 23/M01 A3006 RMK AO1 T02321011
KSBS 222355Z AUTO 30015G22KT 10SM CLR 24/M01 A3006 RMK AO1 T02371006
KSBS 222335Z AUTO 29016G22KT 10SM CLR 24/M01 A3006 RMK AO1 T02371006
KSBS 222315Z AUTO 29012G26KT 10SM SCT110 24/00 A3006 RMK AO1 T02391005
KSBS 222255Z AUTO 29015G29KT 10SM SCT110 24/M01 A3005 RMK AO1 T02421009
KSBS 222235Z AUTO 28012G27KT 10SM SCT110 24/M01 A3005 RMK AO1 T02441011
KSBS 222215Z AUTO 28017G28KT 10SM SCT110 24/00 A3006 RMK AO1 T02411005
KSBS 222155Z AUTO 28017G24KT 10SM BKN100 24/00 A3006 RMK AO1 T02361001
KSBS 222135Z AUTO 26015G22KT 10SM SCT110 24/00 A3007 RMK AO1 T02380002
KSBS 222115Z AUTO 29016G22KT 10SM BKN110 23/00 A3008 RMK AO1 T02311004
KSBS 222055Z AUTO 27011G23KT 10SM SCT100 SCT120 24/00 A3009 RMK AO1 T02351004
KSBS 222035Z AUTO 31018G25KT 10SM SCT120 24/00 A3009 RMK AO1 T02351001
KSBS 222015Z AUTO 28014G23KT 10SM SCT090 23/00 A3010 RMK AO1 T02340003
KSBS 221955Z AUTO 27015G27KT 10SM SCT090 23/00 A3010 RMK AO1 T02290002
KSBS 221935Z AUTO 28014G24KT 10SM CLR 23/00 A3011 RMK AO1 T02290001
KSBS 221915Z AUTO 28020G26KT 10SM CLR 23/01 A3010 RMK AO1 T02280008